PWSweather.com
Personal Weather Stations
Station Observations
KFLSTJOH36
Aberdeen Highland Point, Saint Johns, FL 32259

Aberdeen Highland PointSaint Johns, FL 32259

Lat: 30.082981, Lon: -81.59522

Elevation: 60

Station Type: Acurite 5-in-1 Weather Sensor

Latest ConditionsUpdated 2:45:01 AM EST Thursday, Dec 12, 2019
Currently Today's Max Today's Min Today's Average
Temperature 66.4°F19.1°C 66.9°F19.4°C 64.4°F18.0°C 66.0°F18.9°C
Dew Point 53.3°F11.8°C 53.6°F12.0°C 50.6°F10.3°C 52.1°F11.2°C
Winds 5.0 mph 8.0 kmh 14.0 mph -22.5 kmh - - 6.1 mph 9.8 kmh
Wind Gusts -- -- - -
Humidity 63% 65% 57% 61%
Pressure 30.46 in1031.5 mb 30.48 in1032.2 mb 30.45 in1031.2 mb -
Hour Temp Dew Point Humidity Winds Wind Gusts Pressure Precip Precip Rate Daily Precip Total
02:45 AM 66.4°F19.1°C 53.3°F11.8°C 63% 5.0 mph 8.0 kmh -- 30.46 in1031.5 mb 0.00 in0.0 mm 0.00 in0.0 mm 0.00 in0.0 mm
02:40 AM 66.7°F19.3°C 53.2°F11.8°C 62% 7.0 mph ENE11.3 kmh ENE -- 30.46 in1031.5 mb 0.00 in0.0 mm 0.00 in0.0 mm 0.00 in0.0 mm
02:35 AM 66.7°F19.3°C 53.2°F11.8°C 62% 6.0 mph E9.7 kmh E -- 30.46 in1031.5 mb 0.00 in0.0 mm 0.00 in0.0 mm 0.00 in0.0 mm
02:30 AM 66.7°F19.3°C 52.8°F11.6°C 61% 14.0 mph E22.5 kmh E -- 30.46 in1031.5 mb 0.00 in0.0 mm 0.00 in0.0 mm 0.00 in0.0 mm
02:25 AM 66.2°F19.0°C 52.3°F11.3°C 61% 6.0 mph ENE9.7 kmh ENE -- 30.46 in1031.5 mb 0.00 in0.0 mm 0.00 in0.0 mm 0.00 in0.0 mm
02:20 AM 66.2°F19.0°C 51.8°F11.0°C 60% 5.0 mph NNE8.0 kmh NNE -- 30.45 in1031.2 mb 0.00 in0.0 mm 0.00 in0.0 mm 0.00 in0.0 mm
02:15 AM 66.4°F19.1°C 51.5°F10.8°C 59% 8.0 mph NE12.9 kmh NE -- 30.46 in1031.5 mb 0.00 in0.0 mm 0.00 in0.0 mm 0.00 in0.0 mm
02:10 AM 66.4°F19.1°C 51.1°F10.6°C 58% 10.0 mph E16.1 kmh E -- 30.46 in1031.5 mb 0.00 in0.0 mm 0.00 in0.0 mm 0.00 in0.0 mm
02:05 AM 66.9°F19.4°C 51.1°F10.6°C 57% 4.0 mph E6.4 kmh E -- 30.46 in1031.5 mb 0.00 in0.0 mm 0.00 in0.0 mm 0.00 in0.0 mm
02:00 AM 66.9°F19.4°C 51.1°F10.6°C 57% 2.0 mph NE3.2 kmh NE -- 30.46 in1031.5 mb 0.00 in0.0 mm 0.00 in0.0 mm 0.00 in0.0 mm
01:55 AM 65.8°F18.8°C 50.6°F10.3°C 58% 8.0 mph SE12.9 kmh SE -- 30.46 in1031.5 mb 0.00 in0.0 mm 0.00 in0.0 mm 0.00 in0.0 mm
01:50 AM 66.6°F19.2°C 50.8°F10.4°C 57% 3.0 mph ENE4.8 kmh ENE -- 30.46 in1031.5 mb 0.00 in0.0 mm 0.00 in0.0 mm 0.00 in0.0 mm
01:45 AM 65.8°F18.8°C 50.6°F10.3°C 58% 5.0 mph NNE8.0 kmh NNE -- 30.45 in1031.2 mb 0.00 in0.0 mm 0.00 in0.0 mm 0.00 in0.0 mm
01:40 AM 66.2°F19.0°C 50.9°F10.5°C 58% 6.0 mph NNE9.7 kmh NNE -- 30.45 in1031.2 mb 0.00 in0.0 mm 0.00 in0.0 mm 0.00 in0.0 mm
01:35 AM 65.8°F18.8°C 51.0°F10.6°C 59% 5.0 mph NNW8.0 kmh NNW -- 30.46 in1031.5 mb 0.00 in0.0 mm 0.00 in0.0 mm 0.00 in0.0 mm
01:30 AM 66.2°F19.0°C 51.4°F10.8°C 59% 5.0 mph NE8.0 kmh NE -- 30.46 in1031.5 mb 0.00 in0.0 mm 0.00 in0.0 mm 0.00 in0.0 mm
01:25 AM 66.4°F19.1°C 51.5°F10.8°C 59% 4.0 mph NNE6.4 kmh NNE -- 30.46 in1031.5 mb 0.00 in0.0 mm 0.00 in0.0 mm 0.00 in0.0 mm
01:20 AM 65.3°F18.5°C 51.4°F10.8°C 61% 4.0 mph NNE6.4 kmh NNE -- 30.46 in1031.5 mb 0.00 in0.0 mm 0.00 in0.0 mm 0.00 in0.0 mm
01:15 AM 65.8°F18.8°C 51.5°F10.8°C 60% 7.0 mph 11.3 kmh -- 30.47 in1031.8 mb 0.00 in0.0 mm 0.00 in0.0 mm 0.00 in0.0 mm
01:10 AM 66.2°F19.0°C 51.8°F11.0°C 60% 5.0 mph NE8.0 kmh NE -- 30.46 in1031.5 mb 0.00 in0.0 mm 0.00 in0.0 mm 0.00 in0.0 mm
01:05 AM 65.3°F18.5°C 51.4°F10.8°C 61% 9.0 mph NNE14.5 kmh NNE -- 30.46 in1031.5 mb 0.00 in0.0 mm 0.00 in0.0 mm 0.00 in0.0 mm
01:00 AM 64.4°F18.0°C 51.0°F10.6°C 62% 8.0 mph NW12.9 kmh NW -- 30.46 in1031.5 mb 0.00 in0.0 mm 0.00 in0.0 mm 0.00 in0.0 mm
12:55 AM 65.3°F18.5°C 51.9°F11.1°C 62% 4.0 mph ESE6.4 kmh ESE -- 30.47 in1031.8 mb 0.00 in0.0 mm 0.00 in0.0 mm 0.00 in0.0 mm
12:50 AM 66.0°F18.9°C 52.6°F11.4°C 62% 9.0 mph NE14.5 kmh NE -- 30.47 in1031.8 mb 0.00 in0.0 mm 0.00 in0.0 mm 0.00 in0.0 mm
12:45 AM 65.8°F18.8°C 52.8°F11.6°C 63% 8.0 mph ENE12.9 kmh ENE -- 30.47 in1031.8 mb 0.00 in0.0 mm 0.00 in0.0 mm 0.00 in0.0 mm
12:40 AM 66.4°F19.1°C 53.3°F11.8°C 63% 4.0 mph ENE6.4 kmh ENE -- 30.47 in1031.8 mb 0.00 in0.0 mm 0.00 in0.0 mm 0.00 in0.0 mm
12:35 AM 66.0°F18.9°C 53.0°F11.7°C 63% 11.0 mph NW17.7 kmh NW -- 30.47 in1031.8 mb 0.00 in0.0 mm 0.00 in0.0 mm 0.00 in0.0 mm
12:30 AM 66.2°F19.0°C 53.6°F12.0°C 64% 3.0 mph NE4.8 kmh NE -- 30.47 in1031.8 mb 0.00 in0.0 mm 0.00 in0.0 mm 0.00 in0.0 mm
12:25 AM 65.7°F18.7°C 53.5°F11.9°C 65% 4.0 mph NNE6.4 kmh NNE -- 30.48 in1032.2 mb 0.00 in0.0 mm 0.00 in0.0 mm 0.00 in0.0 mm
12:20 AM 65.3°F18.5°C 53.2°F11.8°C 65% 8.0 mph ESE12.9 kmh ESE -- 30.48 in1032.2 mb 0.00 in0.0 mm 0.00 in0.0 mm 0.00 in0.0 mm
12:15 AM 65.3°F18.5°C 52.7°F11.5°C 64% 6.0 mph ENE9.7 kmh ENE -- 30.48 in1032.2 mb 0.00 in0.0 mm 0.00 in0.0 mm 0.00 in0.0 mm
12:10 AM 66.4°F19.1°C 53.3°F11.8°C 63% 6.0 mph ENE9.7 kmh ENE -- 30.47 in1031.8 mb 0.00 in0.0 mm 0.00 in0.0 mm 0.00 in0.0 mm
12:05 AM 65.7°F18.7°C 53.1°F11.7°C 64% 4.0 mph NNW6.4 kmh NNW -- 30.47 in1031.8 mb 0.00 in0.0 mm 0.00 in0.0 mm 0.00 in0.0 mm
12:00 AM 65.1°F18.4°C 53.0°F11.7°C 65% 3.0 mph NNE4.8 kmh NNE -- 30.48 in1032.2 mb 0.00 in0.0 mm 0.00 in0.0 mm 0.00 in0.0 mm